CYVO

Val-d'Or Airport

ICAO Code CYVO
IATA Code YVO
Name Val-d'Or Airport
Location Val-d'Or, Quebec, CA
Elevation 1105 Feet / 336.8 Meters
Latitude 48.05333333
Longitude -77.78277778
METAR CYVO 131600Z 32009G17KT 300V360 15SM SCT060 BKN100 18/01 A3021 RMK CU4AC1 SLP242 DENSITY ALT 1400FT
Extra information Display Charts and CFS
Display NOTAMS
Runway Length Width Surface Elevation
18 10000 ft 150 ft ASP 1101 ft
36 10000 ft 150 ft ASP 1099 ft

Mandatory Routes

Val-d'Or Airport

Direction Destination Level Remark Type Route
DEP TO CYQB H&L RNAV OLAVO OLAVO ARR
DEP TO CYUL H&L RNAV TAGET IKMOL LAFLEUR ARR